^^
Saratoga-Weather Station Historical Data
Daily Summary for July 25, 2020 Units:  Both    English   Metric
Daily Weekly Monthly Yearly Custom
  High: Low: Average:
Temperature: 57.6 °F /  14.2 °C 47.5 °F /  8.6 °C 50.4 °F /  10.2 °C
Dew Point: 55 °F /  12.8 °C 44.4 °F /  6.9 °C 47.3 °F /  8.5 °C
Humidity: 92% 84% 89%
Wind Speed: 12.1mph /  19.5km/h - 3.9mph /  6.3km/h
Wind Gust: 18mph /  29km/h - -
Wind- - WSW
Pressure: 29.6 in /  1001.7 hPa 29.4 in /  997.0 hPa -
Precipitation: 0.52 in /  13.2 mm    
Historical Graphs
 
 
Tabular Data for July 25, 2020
Time Temperature Dew Point Pressure Wind Wind Speed Wind Gust Humidity Rainfall Rate (Hourly) solar
00:03 57.6 °F /  14.2 °C 54.7 °F /  12.6 °C 29.5in /  997.6hPa East 2mph /  3.2km/h 3mph /  4.8km/h 90% 0in /  0.0mm 0 W/m2
00:08 57.6 °F /  14.2 °C 55 °F /  12.8 °C 29.5in /  997.6hPa NE 2.9mph /  4.7km/h 4mph /  6.4km/h 91% 0in /  0.0mm 0 W/m2
00:13 57.6 °F /  14.2 °C 55 °F /  12.8 °C 29.5in /  997.6hPa ENE 2.9mph /  4.7km/h 4mph /  6.4km/h 91% 0in /  0.0mm 0 W/m2
00:18 57.6 °F /  14.2 °C 55 °F /  12.8 °C 29.5in /  997.6hPa Calm   5mph /  8km/h 91% 0in /  0.0mm 0 W/m2
00:23 57.6 °F /  14.2 °C 55 °F /  12.8 °C 29.5in /  997.6hPa ESE 2.9mph /  4.7km/h 4mph /  6.4km/h 91% 0in /  0.0mm 0 W/m2
00:28 57.4 °F /  14.1 °C 54.9 °F /  12.7 °C 29.5in /  998.0hPa NW 12.1mph /  19.5km/h 13mph /  20.9km/h 91% 0.09in /  2.3mm 0 W/m2
00:33 56.5 °F /  13.6 °C 53.2 °F /  11.8 °C 29.5in /  998.3hPa WNW 6.9mph /  11.1km/h 11mph /  17.7km/h 89% 0.19in /  4.8mm 0 W/m2
00:38 55.8 °F /  13.2 °C 52.5 °F /  11.4 °C 29.5in /  998.6hPa NW 6mph /  9.7km/h 9mph /  14.5km/h 89% 0.22in /  5.6mm 0 W/m2
00:43 55 °F /  12.8 °C 52.2 °F /  11.2 °C 29.5in /  998.6hPa WNW 6.9mph /  11.1km/h 15mph /  24.1km/h 90% 0.24in /  6.1mm 0 W/m2
00:48 54.3 °F /  12.4 °C 51.4 °F /  10.8 °C 29.5in /  998.6hPa WNW 8.1mph /  13km/h 14mph /  22.5km/h 90% 0.24in /  6.1mm 0 W/m2
00:53 53.8 °F /  12.1 °C 50.9 °F /  10.5 °C 29.5in /  998.6hPa West 2.9mph /  4.7km/h 12mph /  19.3km/h 90% 0.24in /  6.1mm 0 W/m2
00:58 53.2 °F /  11.8 °C 50.4 °F /  10.2 °C 29.5in /  998.6hPa West 10.1mph /  16.3km/h 11mph /  17.7km/h 90% 0.24in /  6.1mm 0 W/m2
01:03 53.2 °F /  11.8 °C 50.7 °F /  10.4 °C 29.5in /  998.6hPa WNW 2mph /  3.2km/h 6mph /  9.7km/h 91% 0.25in /  6.3mm 0 W/m2
01:08 53.1 °F /  11.7 °C 50.5 °F /  10.3 °C 29.5in /  998.6hPa West 6.9mph /  11.1km/h 9mph /  14.5km/h 91% 0.25in /  6.3mm 0 W/m2
01:13 53.1 °F /  11.7 °C 50.5 °F /  10.3 °C 29.5in /  998.6hPa WNW 6.9mph /  11.1km/h 13mph /  20.9km/h 91% 0.25in /  6.3mm 0 W/m2
01:18 53.1 °F /  11.7 °C 50.5 °F /  10.3 °C 29.5in /  998.6hPa WSW 11mph /  17.7km/h 11mph /  17.7km/h 91% 0.27in /  6.9mm 0 W/m2
01:23 52.9 °F /  11.6 °C 50.4 °F /  10.2 °C 29.5in /  998.6hPa WNW 4.9mph /  7.9km/h 11mph /  17.7km/h 91% 0.28in /  7.1mm 0 W/m2
01:29 52.9 °F /  11.6 °C 50.4 °F /  10.2 °C 29.5in /  998.6hPa NW 6.9mph /  11.1km/h 8mph /  12.9km/h 91% 0.16in /  4.1mm 0 W/m2
01:34 52.5 °F /  11.4 °C 50 °F /  10 °C 29.5in /  998.6hPa WNW 2mph /  3.2km/h 10mph /  16.1km/h 91% 0.11in /  2.8mm 0 W/m2
01:39 52.5 °F /  11.4 °C 50 °F /  10 °C 29.5in /  998.6hPa WSW 4mph /  6.4km/h 6mph /  9.7km/h 91% 0.09in /  2.3mm 0 W/m2
01:44 52.3 °F /  11.3 °C 49.8 °F /  9.9 °C 29.5in /  998.6hPa WNW 2.9mph /  4.7km/h 7mph /  11.3km/h 91% 0.07in /  1.8mm 0 W/m2
01:49 52.3 °F /  11.3 °C 49.8 °F /  9.9 °C 29.5in /  998.6hPa WNW 2.9mph /  4.7km/h 10mph /  16.1km/h 91% 0.06in /  1.5mm 0 W/m2
01:54 52.2 °F /  11.2 °C 49.6 °F /  9.8 °C 29.5in /  998.6hPa WSW 0.9mph /  1.4km/h 5mph /  8km/h 91% 0.06in /  1.5mm 0 W/m2
01:59 52.2 °F /  11.2 °C 49.6 °F /  9.8 °C 29.5in /  998.6hPa WSW 0.9mph /  1.4km/h 10mph /  16.1km/h 91% 0.06in /  1.5mm 0 W/m2
02:04 52.2 °F /  11.2 °C 49.6 °F /  9.8 °C 29.5in /  998.6hPa WSW 2mph /  3.2km/h 2mph /  3.2km/h 91% 0.06in /  1.5mm 0 W/m2
02:09 52 °F /  11.1 °C 49.5 °F /  9.7 °C 29.5in /  998.6hPa SSE 0.9mph /  1.4km/h 4mph /  6.4km/h 91% 0.06in /  1.5mm 0 W/m2
02:14 52 °F /  11.1 °C 49.5 °F /  9.7 °C 29.5in /  998.6hPa East 0.9mph /  1.4km/h 2mph /  3.2km/h 91% 0.06in /  1.5mm 0 W/m2
02:19 52 °F /  11.1 °C 49.6 °F /  9.8 °C 29.5in /  998.6hPa Calm   3mph /  4.8km/h 92% 0.04in /  1.0mm 0 W/m2
02:24 52 °F /  11.1 °C 49.6 °F /  9.8 °C 29.5in /  998.6hPa Calm   2mph /  3.2km/h 92% 0.02in /  0.5mm 0 W/m2
02:29 51.8 °F /  11 °C 49.6 °F /  9.8 °C 29.5in /  998.6hPa East 0.9mph /  1.4km/h 2mph /  3.2km/h 92% 0.01in /  0.2mm 0 W/m2
02:34 51.6 °F /  10.9 °C 49.5 °F /  9.7 °C 29.5in /  998.6hPa WSW 2mph /  3.2km/h 3mph /  4.8km/h 92% 0in /  0.0mm 0 W/m2
02:39 51.6 °F /  10.9 °C 49.5 °F /  9.7 °C 29.5in /  999.0hPa Calm   1mph /  1.6km/h 92% 0in /  0.0mm 0 W/m2
02:44 51.6 °F /  10.9 °C 49.5 °F /  9.7 °C 29.5in /  998.6hPa West 0.9mph /  1.4km/h 3mph /  4.8km/h 92% 0in /  0.0mm 0 W/m2
02:49 51.6 °F /  10.9 °C 49.5 °F /  9.7 °C 29.5in /  998.6hPa SSW 0.9mph /  1.4km/h 2mph /  3.2km/h 92% 0in /  0.0mm 0 W/m2
02:54 51.6 °F /  10.9 °C 49.5 °F /  9.7 °C 29.5in /  998.3hPa East 2mph /  3.2km/h 2mph /  3.2km/h 92% 0in /  0.0mm 0 W/m2
02:59 51.6 °F /  10.9 °C 49.5 °F /  9.7 °C 29.5in /  998.3hPa Calm   1mph /  1.6km/h 92% 0in /  0.0mm 0 W/m2
03:04 51.6 °F /  10.9 °C 49.5 °F /  9.7 °C 29.5in /  998.6hPa NW 2mph /  3.2km/h 3mph /  4.8km/h 92% 0in /  0.0mm 0 W/m2
03:09 51.6 °F /  10.9 °C 49.5 °F /  9.7 °C 29.5in /  998.6hPa NE 2.9mph /  4.7km/h 4mph /  6.4km/h 92% 0in /  0.0mm 0 W/m2
03:14 51.6 °F /  10.9 °C 49.5 °F /  9.7 °C 29.5in /  998.3hPa West 4mph /  6.4km/h 15mph /  24.1km/h 92% 0in /  0.0mm 0 W/m2
03:19 51.6 °F /  10.9 °C 49.1 °F /  9.5 °C 29.5in /  999.0hPa WSW 8.1mph /  13km/h 8mph /  12.9km/h 91% 0in /  0.0mm 0 W/m2
03:24 51.8 °F /  11 °C 49.3 °F /  9.6 °C 29.5in /  998.6hPa NW 2.9mph /  4.7km/h 14mph /  22.5km/h 91% 0in /  0.0mm 0 W/m2
03:29 51.8 °F /  11 °C 49.3 °F /  9.6 °C 29.5in /  998.6hPa WNW 2.9mph /  4.7km/h 4mph /  6.4km/h 91% 0in /  0.0mm 0 W/m2
03:34 52 °F /  11.1 °C 49.5 °F /  9.7 °C 29.5in /  998.6hPa West 0.9mph /  1.4km/h 7mph /  11.3km/h 91% 0in /  0.0mm 0 W/m2
03:39 52 °F /  11.1 °C 49.5 °F /  9.7 °C 29.5in /  998.6hPa West 6.9mph /  11.1km/h 7mph /  11.3km/h 91% 0in /  0.0mm 0 W/m2
03:44 51.8 °F /  11 °C 48.9 °F /  9.4 °C 29.5in /  998.6hPa SW 2mph /  3.2km/h 4mph /  6.4km/h 90% 0in /  0.0mm 0 W/m2
03:49 51.6 °F /  10.9 °C 49.1 °F /  9.5 °C 29.5in /  998.6hPa NNE 8mph /  12.9km/h 8mph /  12.9km/h 91% 0in /  0.0mm 0 W/m2
03:54 51.4 °F /  10.8 °C 48.6 °F /  9.2 °C 29.5in /  998.6hPa SSW 2mph /  3.2km/h 7mph /  11.3km/h 90% 0in /  0.0mm 0 W/m2
03:59 51.4 °F /  10.8 °C 48.4 °F /  9.1 °C 29.5in /  998.6hPa West 6mph /  9.7km/h 6mph /  9.7km/h 89% 0in /  0.0mm 0 W/m2
04:04 51.3 °F /  10.7 °C 48.2 °F /  9 °C 29.5in /  998.6hPa NW 2.9mph /  4.7km/h 3mph /  4.8km/h 89% 0in /  0.0mm 0 W/m2
04:09 51.3 °F /  10.7 °C 48.2 °F /  9 °C 29.5in /  999.0hPa NW 2mph /  3.2km/h 2mph /  3.2km/h 89% 0in /  0.0mm 0 W/m2
04:14 51.1 °F /  10.6 °C 47.7 °F /  8.7 °C 29.5in /  999.0hPa WSW 6.9mph /  11.1km/h 7mph /  11.3km/h 88% 0in /  0.0mm 0 W/m2
04:20 50.7 °F /  10.4 °C 47.7 °F /  8.7 °C 29.5in /  999.0hPa NNW 2.9mph /  4.7km/h 4mph /  6.4km/h 89% 0in /  0.0mm 0 W/m2
04:25 50.5 °F /  10.3 °C 47.5 °F /  8.6 °C 29.5in /  999.0hPa WSW 0.9mph /  1.4km/h 2mph /  3.2km/h 89% 0in /  0.0mm 0 W/m2
04:30 50.5 °F /  10.3 °C 47.5 °F /  8.6 °C 29.5in /  998.6hPa North 0.9mph /  1.4km/h 1mph /  1.6km/h 89% 0in /  0.0mm 0 W/m2
04:35 50.4 °F /  10.2 °C 47.3 °F /  8.5 °C 29.5in /  999.0hPa WNW 2mph /  3.2km/h 2mph /  3.2km/h 89% 0in /  0.0mm 0 W/m2
04:40 50.2 °F /  10.1 °C 47.1 °F /  8.4 °C 29.5in /  999.3hPa NNW 2mph /  3.2km/h 6mph /  9.7km/h 89% 0in /  0.0mm 0 W/m2
04:45 50.2 °F /  10.1 °C 46.8 °F /  8.2 °C 29.5in /  999.0hPa NW 0.9mph /  1.4km/h 5mph /  8km/h 88% 0in /  0.0mm 0 W/m2
04:50 50 °F /  10 °C 46.6 °F /  8.1 °C 29.5in /  999.0hPa SW 4mph /  6.4km/h 10mph /  16.1km/h 88% 0in /  0.0mm 0 W/m2
04:55 50 °F /  10 °C 46.6 °F /  8.1 °C 29.5in /  999.0hPa NW 0.9mph /  1.4km/h 9mph /  14.5km/h 88% 0in /  0.0mm 0 W/m2
05:00 50 °F /  10 °C 46.6 °F /  8.1 °C 29.5in /  999.0hPa NW 4mph /  6.4km/h 10mph /  16.1km/h 88% 0.01in /  0.2mm 0 W/m2
05:05 50 °F /  10 °C 46.6 °F /  8.1 °C 29.5in /  998.6hPa WNW 2.9mph /  4.7km/h 15mph /  24.1km/h 88% 0.01in /  0.2mm 0 W/m2
05:10 49.8 °F /  9.9 °C 46.4 °F /  8 °C 29.5in /  999.0hPa NW 2mph /  3.2km/h 7mph /  11.3km/h 88% 0.01in /  0.2mm 0 W/m2
05:15 49.8 °F /  9.9 °C 46.4 °F /  8 °C 29.5in /  998.6hPa NW 4mph /  6.4km/h 15mph /  24.1km/h 88% 0.01in /  0.2mm 0 W/m2
05:20 49.8 °F /  9.9 °C 46.4 °F /  8 °C 29.5in /  998.6hPa WNW 0.9mph /  1.4km/h 5mph /  8km/h 88% 0.01in /  0.2mm 0 W/m2
05:25 49.8 °F /  9.9 °C 46.4 °F /  8 °C 29.5in /  998.3hPa Calm   5mph /  8km/h 88% 0.01in /  0.2mm 0 W/m2
05:30 49.6 °F /  9.8 °C 46.2 °F /  7.9 °C 29.5in /  998.6hPa NW 2.9mph /  4.7km/h 5mph /  8km/h 88% 0.01in /  0.2mm 0 W/m2
05:35 49.6 °F /  9.8 °C 46.2 °F /  7.9 °C 29.5in /  998.6hPa NW 8.1mph /  13km/h 10mph /  16.1km/h 88% 0.01in /  0.2mm 0 W/m2
05:40 49.5 °F /  9.7 °C 46 °F /  7.8 °C 29.5in /  998.6hPa NNW 4.9mph /  7.9km/h 9mph /  14.5km/h 88% 0.01in /  0.2mm 0 W/m2
05:45 49.5 °F /  9.7 °C 45.7 °F /  7.6 °C 29.5in /  999.0hPa NW 2.9mph /  4.7km/h 10mph /  16.1km/h 87% 0.01in /  0.2mm 0 W/m2
05:50 49.5 °F /  9.7 °C 45.7 °F /  7.6 °C 29.5in /  998.6hPa WNW 2mph /  3.2km/h 7mph /  11.3km/h 87% 0.01in /  0.2mm 0 W/m2
05:55 49.3 °F /  9.6 °C 45.5 °F /  7.5 °C 29.5in /  998.3hPa WNW 4mph /  6.4km/h 7mph /  11.3km/h 87% 0.01in /  0.2mm 0 W/m2
06:00 49.1 °F /  9.5 °C 45.3 °F /  7.4 °C 29.5in /  998.6hPa NW 2mph /  3.2km/h 7mph /  11.3km/h 87% 0in /  0.0mm 0 W/m2
06:05 48.9 °F /  9.4 °C 45.1 °F /  7.3 °C 29.5in /  998.6hPa NNW 4mph /  6.4km/h 6mph /  9.7km/h 87% 0in /  0.0mm 0 W/m2
06:10 48.7 °F /  9.3 °C 45.3 °F /  7.4 °C 29.5in /  998.3hPa NW 2.9mph /  4.7km/h 6mph /  9.7km/h 88% 0in /  0.0mm 0 W/m2
06:15 48.7 °F /  9.3 °C 45.3 °F /  7.4 °C 29.5in /  998.3hPa NW 2.9mph /  4.7km/h 6mph /  9.7km/h 88% 0in /  0.0mm 0 W/m2
06:20 48.7 °F /  9.3 °C 45.3 °F /  7.4 °C 29.5in /  998.3hPa West 2mph /  3.2km/h 6mph /  9.7km/h 88% 0in /  0.0mm 0 W/m2
06:25 48.6 °F /  9.2 °C 45.1 °F /  7.3 °C 29.5in /  998.3hPa ESE 0.9mph /  1.4km/h 3mph /  4.8km/h 88% 0in /  0.0mm 0 W/m2
06:30 48.6 °F /  9.2 °C 45.1 °F /  7.3 °C 29.5in /  998.3hPa NNE 0.9mph /  1.4km/h 4mph /  6.4km/h 88% 0in /  0.0mm 0 W/m2
06:35 48.4 °F /  9.1 °C 45 °F /  7.2 °C 29.5in /  998.3hPa East 0.9mph /  1.4km/h 2mph /  3.2km/h 88% 0in /  0.0mm 0 W/m2
06:40 48.4 °F /  9.1 °C 45 °F /  7.2 °C 29.5in /  998.3hPa ENE 0.9mph /  1.4km/h 5mph /  8km/h 88% 0in /  0.0mm 0 W/m2
06:45 48 °F /  8.9 °C 44.6 °F /  7 °C 29.5in /  998.0hPa NNW 2mph /  3.2km/h 2mph /  3.2km/h 88% 0in /  0.0mm 0 W/m2
06:50 47.8 °F /  8.8 °C 44.8 °F /  7.1 °C 29.5in /  998.0hPa ENE 2mph /  3.2km/h 2mph /  3.2km/h 89% 0in /  0.0mm 0 W/m2
06:55 47.8 °F /  8.8 °C 44.8 °F /  7.1 °C 29.5in /  998.0hPa North 2.9mph /  4.7km/h 3mph /  4.8km/h 89% 0in /  0.0mm 0 W/m2
07:01 47.7 °F /  8.7 °C 44.6 °F /  7 °C 29.5in /  998.3hPa East 4mph /  6.4km/h 5mph /  8km/h 89% 0in /  0.0mm 0 W/m2
07:06 47.7 °F /  8.7 °C 45 °F /  7.2 °C 29.5in /  998.3hPa NE 4mph /  6.4km/h 4mph /  6.4km/h 90% 0in /  0.0mm 0 W/m2
07:11 47.7 °F /  8.7 °C 45 °F /  7.2 °C 29.5in /  998.3hPa NE 4mph /  6.4km/h 5mph /  8km/h 90% 0in /  0.0mm 0 W/m2
07:16 47.7 °F /  8.7 °C 45 °F /  7.2 °C 29.5in /  998.3hPa East 0.9mph /  1.4km/h 3mph /  4.8km/h 90% 0in /  0.0mm 0 W/m2
07:21 47.7 °F /  8.7 °C 45 °F /  7.2 °C 29.5in /  998.0hPa ESE 0.9mph /  1.4km/h 2mph /  3.2km/h 90% 0in /  0.0mm 0 W/m2
07:26 47.5 °F /  8.6 °C 44.8 °F /  7.1 °C 29.5in /  998.0hPa East 2mph /  3.2km/h 3mph /  4.8km/h 90% 0in /  0.0mm 0 W/m2
07:31 47.5 °F /  8.6 °C 44.8 °F /  7.1 °C 29.5in /  998.3hPa East 2mph /  3.2km/h 6mph /  9.7km/h 90% 0in /  0.0mm 0 W/m2
07:36 47.5 °F /  8.6 °C 44.8 °F /  7.1 °C 29.5in /  998.3hPa NNE 0.9mph /  1.4km/h 2mph /  3.2km/h 90% 0in /  0.0mm 0 W/m2
07:41 47.7 °F /  8.7 °C 45 °F /  7.2 °C 29.5in /  998.3hPa Calm   6mph /  9.7km/h 90% 0in /  0.0mm 5 W/m2
07:46 47.8 °F /  8.8 °C 45 °F /  7.2 °C 29.5in /  998.3hPa NE 0.9mph /  1.4km/h 2mph /  3.2km/h 90% 0in /  0.0mm 9 W/m2
07:56 47.8 °F /  8.8 °C 45 °F /  7.2 °C 29.5in /  998.3hPa NW 0.9mph /  1.4km/h 2mph /  3.2km/h 90% 0in /  0.0mm 19 W/m2
08:01 47.8 °F /  8.8 °C 45 °F /  7.2 °C 29.5in /  998.3hPa North 2mph /  3.2km/h 4mph /  6.4km/h 90% 0in /  0.0mm 16 W/m2
08:06 48 °F /  8.9 °C 45.1 °F /  7.3 °C 29.5in /  998.3hPa WNW 2.9mph /  4.7km/h 7mph /  11.3km/h 90% 0in /  0.0mm 16 W/m2
08:11 48.4 °F /  9.1 °C 45.3 °F /  7.4 °C 29.5in /  998.3hPa South 2mph /  3.2km/h 4mph /  6.4km/h 89% 0in /  0.0mm 18 W/m2
08:16 48.6 °F /  9.2 °C 45.5 °F /  7.5 °C 29.5in /  998.3hPa ENE 4mph /  6.4km/h 6mph /  9.7km/h 89% 0in /  0.0mm 23 W/m2
08:21 48.6 °F /  9.2 °C 45.1 °F /  7.3 °C 29.5in /  998.3hPa NW 0.9mph /  1.4km/h 3mph /  4.8km/h 88% 0in /  0.0mm 18 W/m2
08:26 48.7 °F /  9.3 °C 45.3 °F /  7.4 °C 29.5in /  998.3hPa North 2mph /  3.2km/h 6mph /  9.7km/h 88% 0in /  0.0mm 19 W/m2
08:31 48.7 °F /  9.3 °C 45.3 °F /  7.4 °C 29.5in /  998.3hPa WNW 4mph /  6.4km/h 8mph /  12.9km/h 88% 0in /  0.0mm 14 W/m2
08:36 48.7 °F /  9.3 °C 45 °F /  7.2 °C 29.5in /  998.3hPa NE 0.9mph /  1.4km/h 5mph /  8km/h 87% 0in /  0.0mm 11 W/m2
08:41 48.9 °F /  9.4 °C 45.1 °F /  7.3 °C 29.5in /  998.0hPa NE 2mph /  3.2km/h 3mph /  4.8km/h 87% 0in /  0.0mm 14 W/m2
08:46 48.9 °F /  9.4 °C 45.1 °F /  7.3 °C 29.5in /  998.0hPa SSE 0.9mph /  1.4km/h 2mph /  3.2km/h 87% 0in /  0.0mm 14 W/m2
08:51 48.9 °F /  9.4 °C 45.1 °F /  7.3 °C 29.5in /  998.3hPa North 4mph /  6.4km/h 4mph /  6.4km/h 87% 0in /  0.0mm 21 W/m2
08:56 49.1 °F /  9.5 °C 45.3 °F /  7.4 °C 29.5in /  998.3hPa ENE 2.9mph /  4.7km/h 3mph /  4.8km/h 87% 0in /  0.0mm 21 W/m2
09:01 49.1 °F /  9.5 °C 45.7 °F /  7.6 °C 29.5in /  998.3hPa NW 2.9mph /  4.7km/h 7mph /  11.3km/h 88% 0in /  0.0mm 21 W/m2
09:06 48.9 °F /  9.4 °C 45.5 °F /  7.5 °C 29.5in /  998.6hPa Calm   3mph /  4.8km/h 88% 0in /  0.0mm 12 W/m2
09:11 48.9 °F /  9.4 °C 45.5 °F /  7.5 °C 29.5in /  998.3hPa North 2.9mph /  4.7km/h 4mph /  6.4km/h 88% 0in /  0.0mm 23 W/m2
09:16 48.9 °F /  9.4 °C 45.5 °F /  7.5 °C 29.5in /  998.6hPa NE 2mph /  3.2km/h 3mph /  4.8km/h 88% 0in /  0.0mm 18 W/m2
09:21 48.9 °F /  9.4 °C 45.9 °F /  7.7 °C 29.5in /  998.3hPa North 2mph /  3.2km/h 2mph /  3.2km/h 89% 0in /  0.0mm 21 W/m2
09:26 48.9 °F /  9.4 °C 46 °F /  7.8 °C 29.5in /  998.3hPa Calm   3mph /  4.8km/h 90% 0.01in /  0.2mm 28 W/m2
09:31 48.9 °F /  9.4 °C 45.9 °F /  7.7 °C 29.5in /  998.3hPa NNW 2mph /  3.2km/h 5mph /  8km/h 89% 0.01in /  0.2mm 37 W/m2
09:36 48.9 °F /  9.4 °C 45.9 °F /  7.7 °C 29.5in /  998.6hPa NE 2mph /  3.2km/h 4mph /  6.4km/h 89% 0.01in /  0.2mm 26 W/m2
09:41 49.1 °F /  9.5 °C 46 °F /  7.8 °C 29.5in /  998.6hPa NNW 2.9mph /  4.7km/h 6mph /  9.7km/h 89% 0.01in /  0.2mm 30 W/m2
09:46 49.3 °F /  9.6 °C 46.2 °F /  7.9 °C 29.5in /  998.6hPa East 2mph /  3.2km/h 4mph /  6.4km/h 89% 0.01in /  0.2mm 33 W/m2
09:51 49.1 °F /  9.5 °C 46 °F /  7.8 °C 29.5in /  998.6hPa Calm   6mph /  9.7km/h 89% 0.01in /  0.2mm 21 W/m2
09:56 49.1 °F /  9.5 °C 46 °F /  7.8 °C 29.5in /  998.6hPa North 0.9mph /  1.4km/h 3mph /  4.8km/h 89% 0.01in /  0.2mm 91 W/m2
10:01 49.1 °F /  9.5 °C 46.2 °F /  7.9 °C 29.5in /  998.6hPa NNE 2mph /  3.2km/h 3mph /  4.8km/h 90% 0.01in /  0.2mm 139 W/m2
10:06 49.3 °F /  9.6 °C 46.8 °F /  8.2 °C 29.5in /  998.6hPa NNE 2.9mph /  4.7km/h 5mph /  8km/h 91% 0.01in /  0.2mm 116 W/m2
10:11 49.5 °F /  9.7 °C 46.6 °F /  8.1 °C 29.5in /  998.6hPa North 2.9mph /  4.7km/h 4mph /  6.4km/h 90% 0.01in /  0.2mm 181 W/m2
10:16 49.6 °F /  9.8 °C 46.8 °F /  8.2 °C 29.5in /  998.3hPa NW 4.9mph /  7.9km/h 7mph /  11.3km/h 90% 0.01in /  0.2mm 200 W/m2
10:21 49.8 °F /  9.9 °C 46.9 °F /  8.3 °C 29.5in /  998.3hPa NNE 2.9mph /  4.7km/h 6mph /  9.7km/h 90% 0.01in /  0.2mm 118 W/m2
10:26 50 °F /  10 °C 46.9 °F /  8.3 °C 29.5in /  998.3hPa NE 2.9mph /  4.7km/h 5mph /  8km/h 89% 0in /  0.0mm 109 W/m2
10:31 50 °F /  10 °C 47.1 °F /  8.4 °C 29.5in /  998.6hPa West 2.9mph /  4.7km/h 4mph /  6.4km/h 90% 0in /  0.0mm 193 W/m2
10:36 50.2 °F /  10.1 °C 47.3 °F /  8.5 °C 29.5in /  998.3hPa ENE 6.9mph /  11.1km/h 7mph /  11.3km/h 90% 0in /  0.0mm 232 W/m2
10:41 50.2 °F /  10.1 °C 47.3 °F /  8.5 °C 29.5in /  998.3hPa WNW 4mph /  6.4km/h 6mph /  9.7km/h 90% 0in /  0.0mm 111 W/m2
10:46 50.2 °F /  10.1 °C 47.1 °F /  8.4 °C 29.5in /  998.6hPa NNE 4mph /  6.4km/h 4mph /  6.4km/h 89% 0in /  0.0mm 72 W/m2
10:51 50.4 °F /  10.2 °C 47.5 °F /  8.6 °C 29.5in /  998.6hPa ENE 4.9mph /  7.9km/h 7mph /  11.3km/h 90% 0.01in /  0.2mm 113 W/m2
10:56 50.4 °F /  10.2 °C 47.5 °F /  8.6 °C 29.5in /  998.6hPa West 2.9mph /  4.7km/h 4mph /  6.4km/h 90% 0.01in /  0.2mm 128 W/m2
11:01 50.2 °F /  10.1 °C 47.1 °F /  8.4 °C 29.5in /  998.6hPa North 7mph /  11.3km/h 7mph /  11.3km/h 89% 0.01in /  0.2mm 116 W/m2
11:06 50.4 °F /  10.2 °C 47.5 °F /  8.6 °C 29.5in /  998.3hPa ENE 0.9mph /  1.4km/h 2mph /  3.2km/h 90% 0.01in /  0.2mm 88 W/m2
11:11 50.4 °F /  10.2 °C 47.5 °F /  8.6 °C 29.5in /  998.3hPa Calm   8mph /  12.9km/h 90% 0.01in /  0.2mm 93 W/m2
11:16 50.2 °F /  10.1 °C 47.1 °F /  8.4 °C 29.5in /  998.3hPa NE 0.9mph /  1.4km/h 3mph /  4.8km/h 89% 0.01in /  0.2mm 69 W/m2
11:21 50.4 °F /  10.2 °C 47.5 °F /  8.6 °C 29.5in /  998.6hPa NNW 0.9mph /  1.4km/h 8mph /  12.9km/h 90% 0.01in /  0.2mm 58 W/m2
11:26 50.4 °F /  10.2 °C 47.5 °F /  8.6 °C 29.5in /  998.6hPa East 0.9mph /  1.4km/h 3mph /  4.8km/h 90% 0.01in /  0.2mm 67 W/m2
11:31 50.4 °F /  10.2 °C 47.5 °F /  8.6 °C 29.5in /  998.3hPa NW 2mph /  3.2km/h 3mph /  4.8km/h 90% 0.01in /  0.2mm 88 W/m2
11:36 50.5 °F /  10.3 °C 47.5 °F /  8.6 °C 29.5in /  998.6hPa NNW 2mph /  3.2km/h 2mph /  3.2km/h 89% 0.01in /  0.2mm 125 W/m2
11:41 50.5 °F /  10.3 °C 47.5 °F /  8.6 °C 29.5in /  998.6hPa Calm   3mph /  4.8km/h 89% 0.01in /  0.2mm 134 W/m2
11:46 51.1 °F /  10.6 °C 48.2 °F /  9 °C 29.5in /  998.3hPa NNE 0.9mph /  1.4km/h 3mph /  4.8km/h 90% 0.01in /  0.2mm 202 W/m2
11:51 51.4 °F /  10.8 °C 48.4 °F /  9.1 °C 29.5in /  998.3hPa ENE 2.9mph /  4.7km/h 4mph /  6.4km/h 89% 0in /  0.0mm 207 W/m2
11:56 51.6 °F /  10.9 °C 48.2 °F /  9 °C 29.5in /  998.3hPa NW 0.9mph /  1.4km/h 5mph /  8km/h 88% 0in /  0.0mm 241 W/m2
12:01 51.6 °F /  10.9 °C 47.8 °F /  8.8 °C 29.5in /  998.3hPa NW 2mph /  3.2km/h 8mph /  12.9km/h 87% 0in /  0.0mm 376 W/m2
12:06 52 °F /  11.1 °C 48.2 °F /  9 °C 29.5in /  998.3hPa NE 2.9mph /  4.7km/h 4mph /  6.4km/h 87% 0in /  0.0mm 100 W/m2
12:11 52 °F /  11.1 °C 48.2 °F /  9 °C 29.5in /  998.0hPa NW 2.9mph /  4.7km/h 4mph /  6.4km/h 87% 0.01in /  0.2mm 137 W/m2
12:16 51.6 °F /  10.9 °C 47.8 °F /  8.8 °C 29.5in /  998.0hPa NNW 2.9mph /  4.7km/h 3mph /  4.8km/h 87% 0.02in /  0.5mm 134 W/m2
12:22 51.3 °F /  10.7 °C 47.5 °F /  8.6 °C 29.5in /  998.0hPa WNW 2mph /  3.2km/h 5mph /  8km/h 87% 0.02in /  0.5mm 130 W/m2
12:27 51.1 °F /  10.6 °C 47.7 °F /  8.7 °C 29.5in /  998.0hPa NNE 0.9mph /  1.4km/h 3mph /  4.8km/h 88% 0.03in /  0.8mm 97 W/m2
12:32 50.7 °F /  10.4 °C 47.3 °F /  8.5 °C 29.5in /  998.0hPa NE 2mph /  3.2km/h 6mph /  9.7km/h 88% 0.05in /  1.3mm 276 W/m2
12:37 50.9 °F /  10.5 °C 47.8 °F /  8.8 °C 29.5in /  997.6hPa ESE 2.9mph /  4.7km/h 4mph /  6.4km/h 89% 0.05in /  1.3mm 134 W/m2
12:42 50.9 °F /  10.5 °C 48 °F /  8.9 °C 29.5in /  997.6hPa NNW 2mph /  3.2km/h 6mph /  9.7km/h 90% 0.05in /  1.3mm 172 W/m2
12:47 50.7 °F /  10.4 °C 47.8 °F /  8.8 °C 29.5in /  997.6hPa Calm   4mph /  6.4km/h 90% 0.05in /  1.3mm 234 W/m2
12:52 51.1 °F /  10.6 °C 48.2 °F /  9 °C 29.5in /  997.6hPa NW 2mph /  3.2km/h 6mph /  9.7km/h 90% 0.05in /  1.3mm 135 W/m2
12:57 51.3 °F /  10.7 °C 48.4 °F /  9.1 °C 29.5in /  997.6hPa North 4mph /  6.4km/h 4mph /  6.4km/h 90% 0.05in /  1.3mm 522 W/m2
13:02 51.4 °F /  10.8 °C 48.4 °F /  9.1 °C 29.5in /  997.6hPa NW 2.9mph /  4.7km/h 5mph /  8km/h 89% 0.05in /  1.3mm 387 W/m2
13:07 51.6 °F /  10.9 °C 48.6 °F /  9.2 °C 29.5in /  997.3hPa NW 2.9mph /  4.7km/h 8mph /  12.9km/h 89% 0.05in /  1.3mm 619 W/m2
13:12 52 °F /  11.1 °C 48.9 °F /  9.4 °C 29.5in /  997.3hPa WSW 4mph /  6.4km/h 6mph /  9.7km/h 89% 0.03in /  0.8mm 432 W/m2
13:17 52.2 °F /  11.2 °C 49.1 °F /  9.5 °C 29.5in /  997.3hPa North 2mph /  3.2km/h 4mph /  6.4km/h 89% 0.03in /  0.8mm 195 W/m2
13:22 52.2 °F /  11.2 °C 49.1 °F /  9.5 °C 29.5in /  997.6hPa West 2.9mph /  4.7km/h 6mph /  9.7km/h 89% 0.03in /  0.8mm 353 W/m2
13:27 52.2 °F /  11.2 °C 49.1 °F /  9.5 °C 29.5in /  997.3hPa NW 6mph /  9.7km/h 8mph /  12.9km/h 89% 0.02in /  0.5mm 264 W/m2
13:32 52.2 °F /  11.2 °C 48.7 °F /  9.3 °C 29.5in /  997.3hPa WSW 2.9mph /  4.7km/h 9mph /  14.5km/h 88% 0.01in /  0.2mm 251 W/m2
13:37 52.2 °F /  11.2 °C 48.7 °F /  9.3 °C 29.5in /  997.3hPa SW 2mph /  3.2km/h 4mph /  6.4km/h 88% 0.01in /  0.2mm 141 W/m2
13:42 52 °F /  11.1 °C 48.2 °F /  9 °C 29.5in /  997.3hPa West 4mph /  6.4km/h 8mph /  12.9km/h 87% 0.01in /  0.2mm 135 W/m2
13:47 51.6 °F /  10.9 °C 48.2 °F /  9 °C 29.5in /  997.3hPa West 4mph /  6.4km/h 7mph /  11.3km/h 88% 0.01in /  0.2mm 93 W/m2
13:52 51.4 °F /  10.8 °C 48 °F /  8.9 °C 29.4in /  997.0hPa NW 2mph /  3.2km/h 3mph /  4.8km/h 88% 0.02in /  0.5mm 134 W/m2
13:57 52 °F /  11.1 °C 48.9 °F /  9.4 °C 29.4in /  997.0hPa WNW 0.9mph /  1.4km/h 5mph /  8km/h 89% 0.02in /  0.5mm 733 W/m2
14:02 52.3 °F /  11.3 °C 48.9 °F /  9.4 °C 29.4in /  997.0hPa WNW 2mph /  3.2km/h 4mph /  6.4km/h 88% 0.02in /  0.5mm 202 W/m2
14:07 52.5 °F /  11.4 °C 48.4 °F /  9.1 °C 29.5in /  997.3hPa WNW 6.9mph /  11.1km/h 9mph /  14.5km/h 86% 0.02in /  0.5mm 109 W/m2
14:12 52.2 °F /  11.2 °C 47.8 °F /  8.8 °C 29.5in /  997.6hPa WNW 6.9mph /  11.1km/h 12mph /  19.3km/h 85% 0.02in /  0.5mm 178 W/m2
14:17 51.3 °F /  10.7 °C 46.6 °F /  8.1 °C 29.5in /  997.6hPa West 4mph /  6.4km/h 14mph /  22.5km/h 84% 0.02in /  0.5mm 121 W/m2
14:22 50.4 °F /  10.2 °C 46.4 °F /  8 °C 29.5in /  997.6hPa West 2mph /  3.2km/h 10mph /  16.1km/h 86% 0.02in /  0.5mm 93 W/m2
14:27 49.8 °F /  9.9 °C 46 °F /  7.8 °C 29.5in /  997.6hPa WNW 2mph /  3.2km/h 7mph /  11.3km/h 87% 0.04in /  1.0mm 156 W/m2
14:32 49.5 °F /  9.7 °C 46 °F /  7.8 °C 29.5in /  997.6hPa West 4mph /  6.4km/h 7mph /  11.3km/h 88% 0.05in /  1.3mm 130 W/m2
14:37 49.5 °F /  9.7 °C 46.4 °F /  8 °C 29.5in /  997.6hPa WSW 2.9mph /  4.7km/h 7mph /  11.3km/h 89% 0.06in /  1.5mm 394 W/m2
14:42 49.8 °F /  9.9 °C 46.8 °F /  8.2 °C 29.5in /  997.6hPa West 4mph /  6.4km/h 7mph /  11.3km/h 89% 0.06in /  1.5mm 274 W/m2
14:47 50 °F /  10 °C 46.9 °F /  8.3 °C 29.5in /  997.6hPa NNE 4mph /  6.4km/h 6mph /  9.7km/h 89% 0.05in /  1.3mm 86 W/m2
14:52 50 °F /  10 °C 46.9 °F /  8.3 °C 29.5in /  997.6hPa West 2mph /  3.2km/h 5mph /  8km/h 89% 0.05in /  1.3mm 113 W/m2
14:57 49.8 °F /  9.9 °C 46.4 °F /  8 °C 29.5in /  997.6hPa WSW 2.9mph /  4.7km/h 7mph /  11.3km/h 88% 0.05in /  1.3mm 77 W/m2
15:02 49.8 °F /  9.9 °C 46.8 °F /  8.2 °C 29.5in /  998.0hPa West 2.9mph /  4.7km/h 13mph /  20.9km/h 89% 0.05in /  1.3mm 272 W/m2
15:07 50 °F /  10 °C 46.9 °F /  8.3 °C 29.5in /  997.6hPa West 0.9mph /  1.4km/h 8mph /  12.9km/h 89% 0.05in /  1.3mm 452 W/m2
15:12 50.2 °F /  10.1 °C 47.1 °F /  8.4 °C 29.5in /  998.0hPa West 2.9mph /  4.7km/h 10mph /  16.1km/h 89% 0.05in /  1.3mm 213 W/m2
15:17 50.4 °F /  10.2 °C 46.9 °F /  8.3 °C 29.5in /  998.0hPa WSW 2.9mph /  4.7km/h 9mph /  14.5km/h 88% 0.04in /  1.0mm 137 W/m2
15:22 50.5 °F /  10.3 °C 46.8 °F /  8.2 °C 29.5in /  998.0hPa NW 2.9mph /  4.7km/h 10mph /  16.1km/h 87% 0.03in /  0.8mm 121 W/m2
15:27 50.5 °F /  10.3 °C 46.8 °F /  8.2 °C 29.5in /  998.0hPa West 2mph /  3.2km/h 12mph /  19.3km/h 87% 0.02in /  0.5mm 153 W/m2
15:32 50.7 °F /  10.4 °C 46.9 °F /  8.3 °C 29.5in /  998.0hPa WSW 4.9mph /  7.9km/h 6mph /  9.7km/h 87% 0.01in /  0.2mm 176 W/m2
15:37 50.5 °F /  10.3 °C 46.6 °F /  8.1 °C 29.5in /  998.0hPa West 6.9mph /  11.1km/h 8mph /  12.9km/h 86% 0in /  0.0mm 181 W/m2
15:42 50.7 °F /  10.4 °C 46.8 °F /  8.2 °C 29.5in /  998.0hPa WNW 8.1mph /  13km/h 12mph /  19.3km/h 86% 0in /  0.0mm 144 W/m2
15:47 50.7 °F /  10.4 °C 46.8 °F /  8.2 °C 29.5in /  998.0hPa SW 0.9mph /  1.4km/h 10mph /  16.1km/h 86% 0in /  0.0mm 199 W/m2
15:52 50.7 °F /  10.4 °C 46.8 °F /  8.2 °C 29.5in /  998.0hPa WNW 2.9mph /  4.7km/h 12mph /  19.3km/h 86% 0in /  0.0mm 130 W/m2
15:57 50.7 °F /  10.4 °C 46.8 °F /  8.2 °C 29.5in /  998.0hPa West 8.1mph /  13km/h 11mph /  17.7km/h 86% 0in /  0.0mm 156 W/m2
16:02 50.7 °F /  10.4 °C 46.9 °F /  8.3 °C 29.5in /  998.0hPa WSW 2.9mph /  4.7km/h 12mph /  19.3km/h 87% 0in /  0.0mm 229 W/m2
16:07 51.1 °F /  10.6 °C 47.3 °F /  8.5 °C 29.5in /  998.0hPa West 8.1mph /  13km/h 13mph /  20.9km/h 87% 0in /  0.0mm 123 W/m2
16:12 50.9 °F /  10.5 °C 46.9 °F /  8.3 °C 29.5in /  998.3hPa West 6.9mph /  11.1km/h 11mph /  17.7km/h 86% 0in /  0.0mm 84 W/m2
16:17 50.7 °F /  10.4 °C 46.8 °F /  8.2 °C 29.5in /  998.3hPa WSW 4.9mph /  7.9km/h 10mph /  16.1km/h 86% 0in /  0.0mm 176 W/m2
16:22 50.7 °F /  10.4 °C 46.8 °F /  8.2 °C 29.5in /  998.6hPa West 6mph /  9.7km/h 13mph /  20.9km/h 86% 0in /  0.0mm 111 W/m2
16:27 50.7 °F /  10.4 °C 46.8 °F /  8.2 °C 29.5in /  998.3hPa West 6.9mph /  11.1km/h 18mph /  29km/h 86% 0in /  0.0mm 244 W/m2
16:32 50.7 °F /  10.4 °C 46.8 °F /  8.2 °C 29.5in /  998.6hPa West 6.9mph /  11.1km/h 14mph /  22.5km/h 86% 0in /  0.0mm 281 W/m2
16:37 51.1 °F /  10.6 °C 47.3 °F /  8.5 °C 29.5in /  998.6hPa WNW 4mph /  6.4km/h 8mph /  12.9km/h 87% 0in /  0.0mm 278 W/m2
16:42 51.4 °F /  10.8 °C 47.5 °F /  8.6 °C 29.5in /  998.6hPa WSW 8.1mph /  13km/h 14mph /  22.5km/h 86% 0in /  0.0mm 176 W/m2
16:47 51.3 °F /  10.7 °C 47.3 °F /  8.5 °C 29.5in /  999.0hPa NW 6.9mph /  11.1km/h 7mph /  11.3km/h 86% 0in /  0.0mm 118 W/m2
16:52 51.3 °F /  10.7 °C 47.3 °F /  8.5 °C 29.5in /  998.6hPa NW 4.9mph /  7.9km/h 10mph /  16.1km/h 86% 0in /  0.0mm 109 W/m2
16:57 51.1 °F /  10.6 °C 47.1 °F /  8.4 °C 29.5in /  998.6hPa SW 4mph /  6.4km/h 9mph /  14.5km/h 86% 0in /  0.0mm 77 W/m2
17:02 51.1 °F /  10.6 °C 47.1 °F /  8.4 °C 29.5in /  998.6hPa West 6mph /  9.7km/h 10mph /  16.1km/h 86% 0in /  0.0mm 56 W/m2
17:07 51.1 °F /  10.6 °C 47.3 °F /  8.5 °C 29.5in /  998.6hPa WSW 4mph /  6.4km/h 7mph /  11.3km/h 87% 0in /  0.0mm 76 W/m2
17:12 51.1 °F /  10.6 °C 47.3 °F /  8.5 °C 29.5in /  999.0hPa NW 2mph /  3.2km/h 7mph /  11.3km/h 87% 0in /  0.0mm 84 W/m2
17:17 51.1 °F /  10.6 °C 47.3 °F /  8.5 °C 29.5in /  999.0hPa WNW 4.9mph /  7.9km/h 8mph /  12.9km/h 87% 0in /  0.0mm 56 W/m2
17:22 51.1 °F /  10.6 °C 47.1 °F /  8.4 °C 29.5in /  999.0hPa WNW 4mph /  6.4km/h 12mph /  19.3km/h 86% 0in /  0.0mm 44 W/m2
17:27 51.1 °F /  10.6 °C 47.1 °F /  8.4 °C 29.5in /  999.0hPa West 6.9mph /  11.1km/h 11mph /  17.7km/h 86% 0in /  0.0mm 62 W/m2
17:32 51.3 °F /  10.7 °C 46.9 °F /  8.3 °C 29.5in /  999.0hPa West 6.9mph /  11.1km/h 13mph /  20.9km/h 85% 0in /  0.0mm 65 W/m2
17:37 51.3 °F /  10.7 °C 46.9 °F /  8.3 °C 29.5in /  999.3hPa NW 8.1mph /  13km/h 9mph /  14.5km/h 85% 0in /  0.0mm 49 W/m2
17:42 51.3 °F /  10.7 °C 46.9 °F /  8.3 °C 29.5in /  999.0hPa WSW 4mph /  6.4km/h 13mph /  20.9km/h 85% 0in /  0.0mm 37 W/m2
17:47 51.4 °F /  10.8 °C 47.1 °F /  8.4 °C 29.5in /  999.3hPa NNW 4mph /  6.4km/h 7mph /  11.3km/h 85% 0in /  0.0mm 76 W/m2
17:52 51.4 °F /  10.8 °C 47.1 °F /  8.4 °C 29.5in /  999.3hPa SW 4mph /  6.4km/h 9mph /  14.5km/h 85% 0in /  0.0mm 40 W/m2
17:57 51.4 °F /  10.8 °C 47.1 °F /  8.4 °C 29.5in /  999.3hPa WNW 6.9mph /  11.1km/h 12mph /  19.3km/h 85% 0in /  0.0mm 33 W/m2
18:02 51.4 °F /  10.8 °C 47.1 °F /  8.4 °C 29.5in /  999.3hPa West 2.9mph /  4.7km/h 11mph /  17.7km/h 85% 0in /  0.0mm 35 W/m2
18:07 51.4 °F /  10.8 °C 47.1 °F /  8.4 °C 29.5in /  999.3hPa NW 6mph /  9.7km/h 9mph /  14.5km/h 85% 0in /  0.0mm 19 W/m2
18:12 51.4 °F /  10.8 °C 47.1 °F /  8.4 °C 29.5in /  999.7hPa West 6mph /  9.7km/h 10mph /  16.1km/h 85% 0in /  0.0mm 12 W/m2
18:17 51.4 °F /  10.8 °C 47.1 °F /  8.4 °C 29.5in /  999.3hPa West 6mph /  9.7km/h 11mph /  17.7km/h 85% 0in /  0.0mm 32 W/m2
18:22 51.3 °F /  10.7 °C 47.3 °F /  8.5 °C 29.5in /  999.7hPa West 6mph /  9.7km/h 10mph /  16.1km/h 86% 0in /  0.0mm 21 W/m2
18:27 51.1 °F /  10.6 °C 47.3 °F /  8.5 °C 29.5in /  999.7hPa WSW 8.1mph /  13km/h 11mph /  17.7km/h 87% 0in /  0.0mm 12 W/m2
18:32 50.5 °F /  10.3 °C 47.1 °F /  8.4 °C 29.5in /  999.7hPa WNW 10.1mph /  16.3km/h 12mph /  19.3km/h 88% 0.01in /  0.2mm 12 W/m2
18:37 50.4 °F /  10.2 °C 47.3 °F /  8.5 °C 29.5in /  999.7hPa West 2.9mph /  4.7km/h 11mph /  17.7km/h 89% 0.01in /  0.2mm 32 W/m2
18:42 50.2 °F /  10.1 °C 47.3 °F /  8.5 °C 29.5in /  1000.0hPa SW 8.1mph /  13km/h 13mph /  20.9km/h 90% 0.02in /  0.5mm 21 W/m2
18:47 49.8 °F /  9.9 °C 46.9 °F /  8.3 °C 29.5in /  1000.0hPa West 8.9mph /  14.3km/h 11mph /  17.7km/h 90% 0.02in /  0.5mm 16 W/m2
18:52 49.8 °F /  9.9 °C 46.9 °F /  8.3 °C 29.5in /  1000.0hPa West 6mph /  9.7km/h 13mph /  20.9km/h 90% 0.02in /  0.5mm 16 W/m2
18:57 49.6 °F /  9.8 °C 47.1 °F /  8.4 °C 29.5in /  1000.0hPa WSW 4.9mph /  7.9km/h 10mph /  16.1km/h 91% 0.03in /  0.8mm 11 W/m2
19:02 49.6 °F /  9.8 °C 47.1 °F /  8.4 °C 29.5in /  1000.0hPa West 2.9mph /  4.7km/h 8mph /  12.9km/h 91% 0.04in /  1.0mm 7 W/m2
19:07 49.5 °F /  9.7 °C 46.9 °F /  8.3 °C 29.5in /  1000.0hPa WSW 8.1mph /  13km/h 9mph /  14.5km/h 91% 0.05in /  1.3mm 0 W/m2
19:12 49.5 °F /  9.7 °C 46.9 °F /  8.3 °C 29.5in /  1000.0hPa West 6mph /  9.7km/h 10mph /  16.1km/h 91% 0.06in /  1.5mm 5 W/m2
19:17 49.5 °F /  9.7 °C 46.9 °F /  8.3 °C 29.5in /  1000.0hPa WNW 6.9mph /  11.1km/h 12mph /  19.3km/h 91% 0.07in /  1.8mm 0 W/m2
19:22 49.3 °F /  9.6 °C 47.1 °F /  8.4 °C 29.5in /  1000.0hPa NW 12.1mph /  19.5km/h 14mph /  22.5km/h 92% 0.07in /  1.8mm 0 W/m2
19:28 49.5 °F /  9.7 °C 47.3 °F /  8.5 °C 29.5in /  1000.0hPa WNW 6mph /  9.7km/h 9mph /  14.5km/h 92% 0.07in /  1.8mm 0 W/m2
19:38 49.5 °F /  9.7 °C 47.3 °F /  8.5 °C 29.5in /  1000.3hPa NW 8.1mph /  13km/h 8mph /  12.9km/h 92% 0.06in /  1.5mm 0 W/m2
19:43 49.5 °F /  9.7 °C 47.3 °F /  8.5 °C 29.5in /  1000.3hPa WNW 4.9mph /  7.9km/h 8mph /  12.9km/h 92% 0.06in /  1.5mm 0 W/m2
19:48 49.5 °F /  9.7 °C 46.9 °F /  8.3 °C 29.5in /  1000.3hPa SW 6mph /  9.7km/h 13mph /  20.9km/h 91% 0.05in /  1.3mm 0 W/m2
19:53 49.5 °F /  9.7 °C 46.9 °F /  8.3 °C 29.5in /  1000.3hPa WSW 4.9mph /  7.9km/h 16mph /  25.7km/h 91% 0.05in /  1.3mm 0 W/m2
20:03 49.6 °F /  9.8 °C 47.1 °F /  8.4 °C 29.6in /  1000.7hPa West 8.9mph /  14.3km/h 16mph /  25.7km/h 91% 0.03in /  0.8mm 0 W/m2
20:08 49.6 °F /  9.8 °C 47.1 °F /  8.4 °C 29.6in /  1000.7hPa WSW 4mph /  6.4km/h 10mph /  16.1km/h 91% 0.02in /  0.5mm 0 W/m2
20:13 49.6 °F /  9.8 °C 47.1 °F /  8.4 °C 29.6in /  1000.7hPa WNW 8.9mph /  14.3km/h 12mph /  19.3km/h 91% 0.01in /  0.2mm 0 W/m2
20:18 49.5 °F /  9.7 °C 46.9 °F /  8.3 °C 29.6in /  1000.7hPa WSW 6mph /  9.7km/h 13mph /  20.9km/h 91% 0in /  0.0mm 0 W/m2
20:23 49.5 °F /  9.7 °C 46.9 °F /  8.3 °C 29.6in /  1000.7hPa West 2mph /  3.2km/h 8mph /  12.9km/h 91% 0in /  0.0mm 0 W/m2
20:28 49.6 °F /  9.8 °C 47.1 °F /  8.4 °C 29.6in /  1001.0hPa WNW 12.1mph /  19.5km/h 13mph /  20.9km/h 91% 0in /  0.0mm 0 W/m2
20:33 49.5 °F /  9.7 °C 46.6 °F /  8.1 °C 29.6in /  1001.0hPa WSW 2.9mph /  4.7km/h 13mph /  20.9km/h 90% 0.01in /  0.2mm 0 W/m2
20:38 49.3 °F /  9.6 °C 46.8 °F /  8.2 °C 29.6in /  1001.0hPa West 4mph /  6.4km/h 9mph /  14.5km/h 91% 0.01in /  0.2mm 0 W/m2
20:43 49.1 °F /  9.5 °C 46.6 °F /  8.1 °C 29.6in /  1001.0hPa WNW 10.1mph /  16.3km/h 15mph /  24.1km/h 91% 0.01in /  0.2mm 0 W/m2
20:48 49.1 °F /  9.5 °C 46.2 °F /  7.9 °C 29.6in /  1001.0hPa West 6.9mph /  11.1km/h 11mph /  17.7km/h 90% 0.01in /  0.2mm 0 W/m2
20:53 49.3 °F /  9.6 °C 46.4 °F /  8 °C 29.6in /  1001.0hPa NNW 4mph /  6.4km/h 15mph /  24.1km/h 90% 0.01in /  0.2mm 0 W/m2
20:58 49.3 °F /  9.6 °C 46.4 °F /  8 °C 29.6in /  1001.0hPa West 6mph /  9.7km/h 7mph /  11.3km/h 90% 0.01in /  0.2mm 0 W/m2
21:03 49.1 °F /  9.5 °C 46.2 °F /  7.9 °C 29.6in /  1001.0hPa NW 4.9mph /  7.9km/h 11mph /  17.7km/h 90% 0.01in /  0.2mm 0 W/m2
21:08 49.3 °F /  9.6 °C 46.2 °F /  7.9 °C 29.6in /  1001.0hPa WNW 12.1mph /  19.5km/h 12mph /  19.3km/h 89% 0.01in /  0.2mm 0 W/m2
21:13 49.3 °F /  9.6 °C 46.2 °F /  7.9 °C 29.6in /  1001.4hPa West 4mph /  6.4km/h 10mph /  16.1km/h 89% 0.01in /  0.2mm 0 W/m2
21:18 49.3 °F /  9.6 °C 46.2 °F /  7.9 °C 29.6in /  1001.4hPa WSW 6mph /  9.7km/h 10mph /  16.1km/h 89% 0.01in /  0.2mm 0 W/m2
21:23 49.3 °F /  9.6 °C 46.2 °F /  7.9 °C 29.6in /  1001.4hPa West 2.9mph /  4.7km/h 8mph /  12.9km/h 89% 0.01in /  0.2mm 0 W/m2
21:28 49.3 °F /  9.6 °C 46.2 °F /  7.9 °C 29.6in /  1001.4hPa West 8.1mph /  13km/h 10mph /  16.1km/h 89% 0.01in /  0.2mm 0 W/m2
21:33 49.3 °F /  9.6 °C 46.2 °F /  7.9 °C 29.6in /  1001.4hPa SW 4mph /  6.4km/h 8mph /  12.9km/h 89% 0in /  0.0mm 0 W/m2
21:38 49.1 °F /  9.5 °C 46 °F /  7.8 °C 29.6in /  1001.4hPa WNW 4mph /  6.4km/h 10mph /  16.1km/h 89% 0in /  0.0mm 0 W/m2
21:43 49.1 °F /  9.5 °C 46 °F /  7.8 °C 29.6in /  1001.4hPa West 2.9mph /  4.7km/h 7mph /  11.3km/h 89% 0in /  0.0mm 0 W/m2
21:48 49.1 °F /  9.5 °C 46 °F /  7.8 °C 29.6in /  1001.7hPa WSW 6mph /  9.7km/h 12mph /  19.3km/h 89% 0in /  0.0mm 0 W/m2
21:53 49.1 °F /  9.5 °C 46 °F /  7.8 °C 29.6in /  1001.4hPa West 6mph /  9.7km/h 7mph /  11.3km/h 89% 0in /  0.0mm 0 W/m2
21:58 48.9 °F /  9.4 °C 45.9 °F /  7.7 °C 29.6in /  1001.7hPa NW 6mph /  9.7km/h 10mph /  16.1km/h 89% 0in /  0.0mm 0 W/m2
22:03 48.9 °F /  9.4 °C 45.5 °F /  7.5 °C 29.6in /  1001.7hPa West 6.9mph /  11.1km/h 7mph /  11.3km/h 88% 0in /  0.0mm 0 W/m2
22:08 48.9 °F /  9.4 °C 45.5 °F /  7.5 °C 29.6in /  1001.7hPa WSW 6mph /  9.7km/h 8mph /  12.9km/h 88% 0in /  0.0mm 0 W/m2
22:13 48.9 °F /  9.4 °C 45.5 °F /  7.5 °C 29.6in /  1001.7hPa WNW 6mph /  9.7km/h 10mph /  16.1km/h 88% 0in /  0.0mm 0 W/m2
22:18 49.1 °F /  9.5 °C 45.3 °F /  7.4 °C 29.6in /  1001.7hPa WNW 10.1mph /  16.3km/h 10mph /  16.1km/h 87% 0in /  0.0mm 0 W/m2
22:23 48.9 °F /  9.4 °C 45.1 °F /  7.3 °C 29.6in /  1001.7hPa WNW 8.1mph /  13km/h 8mph /  12.9km/h 87% 0in /  0.0mm 0 W/m2
22:28 48.9 °F /  9.4 °C 45.1 °F /  7.3 °C 29.6in /  1001.7hPa West 8.1mph /  13km/h 8mph /  12.9km/h 87% 0in /  0.0mm 0 W/m2
22:33 48.7 °F /  9.3 °C 45.3 °F /  7.4 °C 29.6in /  1001.7hPa WNW 2mph /  3.2km/h 8mph /  12.9km/h 88% 0in /  0.0mm 0 W/m2
22:38 48.7 °F /  9.3 °C 45 °F /  7.2 °C 29.6in /  1001.7hPa SW 4.9mph /  7.9km/h 12mph /  19.3km/h 87% 0in /  0.0mm 0 W/m2
22:43 48.7 °F /  9.3 °C 45 °F /  7.2 °C 29.6in /  1001.7hPa NW 4.9mph /  7.9km/h 10mph /  16.1km/h 87% 0in /  0.0mm 0 W/m2
22:48 48.7 °F /  9.3 °C 45 °F /  7.2 °C 29.6in /  1001.7hPa WSW 4mph /  6.4km/h 9mph /  14.5km/h 87% 0in /  0.0mm 0 W/m2
22:53 48.7 °F /  9.3 °C 45 °F /  7.2 °C 29.6in /  1001.7hPa West 6mph /  9.7km/h 11mph /  17.7km/h 87% 0in /  0.0mm 0 W/m2
22:58 48.9 °F /  9.4 °C 45 °F /  7.2 °C 29.6in /  1001.7hPa WSW 4mph /  6.4km/h 12mph /  19.3km/h 86% 0in /  0.0mm 0 W/m2
23:03 48.9 °F /  9.4 °C 45 °F /  7.2 °C 29.6in /  1001.7hPa WNW 4.9mph /  7.9km/h 7mph /  11.3km/h 86% 0in /  0.0mm 0 W/m2
23:08 48.9 °F /  9.4 °C 45 °F /  7.2 °C 29.6in /  1001.7hPa West 6mph /  9.7km/h 12mph /  19.3km/h 86% 0in /  0.0mm 0 W/m2
23:13 48.9 °F /  9.4 °C 44.6 °F /  7 °C 29.6in /  1001.7hPa NW 4.9mph /  7.9km/h 10mph /  16.1km/h 85% 0in /  0.0mm 0 W/m2
23:18 49.1 °F /  9.5 °C 44.8 °F /  7.1 °C 29.6in /  1001.7hPa WNW 8.1mph /  13km/h 14mph /  22.5km/h 85% 0in /  0.0mm 0 W/m2
23:23 49.1 °F /  9.5 °C 44.8 °F /  7.1 °C 29.6in /  1001.7hPa West 6.9mph /  11.1km/h 12mph /  19.3km/h 85% 0in /  0.0mm 0 W/m2
23:28 49.1 °F /  9.5 °C 44.8 °F /  7.1 °C 29.6in /  1001.7hPa West 6mph /  9.7km/h 14mph /  22.5km/h 85% 0in /  0.0mm 0 W/m2
23:33 49.1 °F /  9.5 °C 44.4 °F /  6.9 °C 29.6in /  1001.7hPa NW 4mph /  6.4km/h 11mph /  17.7km/h 84% 0in /  0.0mm 0 W/m2
23:38 49.1 °F /  9.5 °C 44.4 °F /  6.9 °C 29.6in /  1001.7hPa West 11mph /  17.7km/h 14mph /  22.5km/h 84% 0in /  0.0mm 0 W/m2
23:43 49.1 °F /  9.5 °C 44.4 °F /  6.9 °C 29.6in /  1001.7hPa West 8.9mph /  14.3km/h 9mph /  14.5km/h 84% 0in /  0.0mm 0 W/m2
23:48 49.1 °F /  9.5 °C 44.4 °F /  6.9 °C 29.6in /  1001.4hPa NW 2.9mph /  4.7km/h 14mph /  22.5km/h 84% 0in /  0.0mm 0 W/m2
23:53 49.1 °F /  9.5 °C 44.8 °F /  7.1 °C 29.6in /  1001.4hPa WNW 4.9mph /  7.9km/h 9mph /  14.5km/h 85% 0in /  0.0mm 0 W/m2
23:58 48.9 °F /  9.4 °C 44.6 °F /  7 °C 29.6in /  1001.4hPa NW 2.9mph /  4.7km/h 14mph /  22.5km/h 85% 0in /  0.0mm 0 W/m2
Juneau County Weather
Compliments of Weather Underground - 2 mb